sensor_id;sensor_type;location;lat;lon;timestamp;temperature;humidity
59469;DHT22;45277;52.768;18.262;2023-12-14T00:01:29;3.30;99.90
59469;DHT22;45277;52.768;18.262;2023-12-14T00:03:01;3.30;99.90
59469;DHT22;45277;52.768;18.262;2023-12-14T00:04:32;3.30;99.90
59469;DHT22;45277;52.768;18.262;2023-12-14T00:06:04;3.30;99.90
59469;DHT22;45277;52.768;18.262;2023-12-14T00:07:36;3.30;99.90
59469;DHT22;45277;52.768;18.262;2023-12-14T00:09:07;3.20;99.90
59469;DHT22;45277;52.768;18.262;2023-12-14T00:10:39;3.20;99.90
59469;DHT22;45277;52.768;18.262;2023-12-14T00:12:11;3.20;99.90
59469;DHT22;45277;52.768;18.262;2023-12-14T00:13:42;3.20;99.90
59469;DHT22;45277;52.768;18.262;2023-12-14T00:15:13;3.20;99.90
59469;DHT22;45277;52.768;18.262;2023-12-14T00:16:45;3.20;99.90
59469;DHT22;45277;52.768;18.262;2023-12-14T00:18:17;3.20;99.90
59469;DHT22;45277;52.768;18.262;2023-12-14T00:19:48;3.20;99.90
59469;DHT22;45277;52.768;18.262;2023-12-14T00:21:20;3.20;99.90
59469;DHT22;45277;52.768;18.262;2023-12-14T00:22:51;3.20;99.90
59469;DHT22;45277;52.768;18.262;2023-12-14T00:24:22;3.20;99.90
59469;DHT22;45277;52.768;18.262;2023-12-14T00:25:54;3.20;99.90
59469;DHT22;45277;52.768;18.262;2023-12-14T00:27:25;3.20;99.90
59469;DHT22;45277;52.768;18.262;2023-12-14T00:28:56;3.20;99.90
59469;DHT22;45277;52.768;18.262;2023-12-14T00:30:28;3.20;99.90
59469;DHT22;45277;52.768;18.262;2023-12-14T00:31:59;3.10;99.90
59469;DHT22;45277;52.768;18.262;2023-12-14T00:33:31;3.10;99.90
59469;DHT22;45277;52.768;18.262;2023-12-14T00:35:03;3.10;99.90
59469;DHT22;45277;52.768;18.262;2023-12-14T00:36:35;3.10;99.90
59469;DHT22;45277;52.768;18.262;2023-12-14T00:38:06;3.10;99.90
59469;DHT22;45277;52.768;18.262;2023-12-14T00:39:38;3.10;99.90
59469;DHT22;45277;52.768;18.262;2023-12-14T00:41:09;3.10;99.90
59469;DHT22;45277;52.768;18.262;2023-12-14T00:42:40;3.10;99.90
59469;DHT22;45277;52.768;18.262;2023-12-14T00:44:12;3.10;99.90
59469;DHT22;45277;52.768;18.262;2023-12-14T00:45:43;3.10;99.90
59469;DHT22;45277;52.768;18.262;2023-12-14T00:47:15;3.10;99.90
59469;DHT22;45277;52.768;18.262;2023-12-14T00:48:46;3.10;99.90
59469;DHT22;45277;52.768;18.262;2023-12-14T00:50:17;3.10;99.90
59469;DHT22;45277;52.768;18.262;2023-12-14T00:51:49;3.10;99.90
59469;DHT22;45277;52.768;18.262;2023-12-14T00:53:20;3.10;99.90
59469;DHT22;45277;52.768;18.262;2023-12-14T00:54:51;3.10;99.90
59469;DHT22;45277;52.768;18.262;2023-12-14T00:56:23;3.00;99.90
59469;DHT22;45277;52.768;18.262;2023-12-14T00:57:54;3.00;99.90
59469;DHT22;45277;52.768;18.262;2023-12-14T00:59:25;3.10;99.90
59469;DHT22;45277;52.768;18.262;2023-12-14T01:00:57;3.10;99.90
59469;DHT22;45277;52.768;18.262;2023-12-14T01:02:28;3.00;99.90
59469;DHT22;45277;52.768;18.262;2023-12-14T01:03:59;3.00;99.90
59469;DHT22;45277;52.768;18.262;2023-12-14T01:05:31;3.00;99.90
59469;DHT22;45277;52.768;18.262;2023-12-14T01:07:03;3.00;99.90
59469;DHT22;45277;52.768;18.262;2023-12-14T01:08:35;3.00;99.90
59469;DHT22;45277;52.768;18.262;2023-12-14T01:10:06;3.10;99.90
59469;DHT22;45277;52.768;18.262;2023-12-14T01:11:38;3.00;99.90
59469;DHT22;45277;52.768;18.262;2023-12-14T01:13:09;3.10;99.90
59469;DHT22;45277;52.768;18.262;2023-12-14T01:14:41;3.00;99.90
59469;DHT22;45277;52.768;18.262;2023-12-14T01:16:12;3.00;99.90
59469;DHT22;45277;52.768;18.262;2023-12-14T01:17:44;3.00;99.90
59469;DHT22;45277;52.768;18.262;2023-12-14T01:19:15;3.00;99.90
59469;DHT22;45277;52.768;18.262;2023-12-14T01:20:47;2.90;99.90
59469;DHT22;45277;52.768;18.262;2023-12-14T01:22:18;2.90;99.90
59469;DHT22;45277;52.768;18.262;2023-12-14T01:23:59;2.90;99.90
59469;DHT22;45277;52.768;18.262;2023-12-14T01:25:32;2.90;99.90
59469;DHT22;45277;52.768;18.262;2023-12-14T01:27:03;2.90;99.90
59469;DHT22;45277;52.768;18.262;2023-12-14T01:28:34;2.90;99.90
59469;DHT22;45277;52.768;18.262;2023-12-14T01:30:07;2.90;99.90
59469;DHT22;45277;52.768;18.262;2023-12-14T01:31:38;2.90;99.90
59469;DHT22;45277;52.768;18.262;2023-12-14T01:33:10;2.90;99.90
59469;DHT22;45277;52.768;18.262;2023-12-14T01:34:41;2.90;99.90
59469;DHT22;45277;52.768;18.262;2023-12-14T01:36:22;2.80;99.90
59469;DHT22;45277;52.768;18.262;2023-12-14T01:37:54;2.80;99.90
59469;DHT22;45277;52.768;18.262;2023-12-14T01:39:25;2.80;99.90
59469;DHT22;45277;52.768;18.262;2023-12-14T01:40:57;2.80;99.90
59469;DHT22;45277;52.768;18.262;2023-12-14T01:42:29;2.80;99.90
59469;DHT22;45277;52.768;18.262;2023-12-14T01:44:01;2.80;99.90
59469;DHT22;45277;52.768;18.262;2023-12-14T01:45:32;2.80;99.90
59469;DHT22;45277;52.768;18.262;2023-12-14T01:47:03;2.80;99.90
59469;DHT22;45277;52.768;18.262;2023-12-14T01:48:35;2.80;99.90
59469;DHT22;45277;52.768;18.262;2023-12-14T01:50:06;2.80;99.90
59469;DHT22;45277;52.768;18.262;2023-12-14T01:51:38;2.70;99.90
59469;DHT22;45277;52.768;18.262;2023-12-14T01:53:09;2.80;99.90
59469;DHT22;45277;52.768;18.262;2023-12-14T01:54:41;2.80;99.90
59469;DHT22;45277;52.768;18.262;2023-12-14T01:56:12;2.80;99.90
59469;DHT22;45277;52.768;18.262;2023-12-14T01:57:44;2.70;99.90
59469;DHT22;45277;52.768;18.262;2023-12-14T01:59:15;2.80;99.90
59469;DHT22;45277;52.768;18.262;2023-12-14T02:03:12;2.70;99.90
59469;DHT22;45277;52.768;18.262;2023-12-14T02:04:43;2.80;99.90
59469;DHT22;45277;52.768;18.262;2023-12-14T02:06:15;2.70;99.90
59469;DHT22;45277;52.768;18.262;2023-12-14T02:07:47;2.70;99.90
59469;DHT22;45277;52.768;18.262;2023-12-14T02:09:18;2.70;99.90
59469;DHT22;45277;52.768;18.262;2023-12-14T02:10:49;2.80;99.90
59469;DHT22;45277;52.768;18.262;2023-12-14T02:12:21;2.70;99.90
59469;DHT22;45277;52.768;18.262;2023-12-14T02:13:52;2.70;99.90
59469;DHT22;45277;52.768;18.262;2023-12-14T02:15:23;2.70;99.90
59469;DHT22;45277;52.768;18.262;2023-12-14T02:16:55;2.70;99.90
59469;DHT22;45277;52.768;18.262;2023-12-14T02:18:26;2.70;99.90
59469;DHT22;45277;52.768;18.262;2023-12-14T02:19:57;2.70;99.90
59469;DHT22;45277;52.768;18.262;2023-12-14T02:21:29;2.70;99.90
59469;DHT22;45277;52.768;18.262;2023-12-14T02:23:01;2.70;99.90
59469;DHT22;45277;52.768;18.262;2023-12-14T02:24:32;2.70;99.90
59469;DHT22;45277;52.768;18.262;2023-12-14T02:26:04;2.70;99.90
59469;DHT22;45277;52.768;18.262;2023-12-14T02:27:35;2.70;99.90
59469;DHT22;45277;52.768;18.262;2023-12-14T02:29:06;2.70;99.90
59469;DHT22;45277;52.768;18.262;2023-12-14T02:30:38;2.70;99.90
59469;DHT22;45277;52.768;18.262;2023-12-14T02:32:09;2.70;99.90
59469;DHT22;45277;52.768;18.262;2023-12-14T02:33:40;2.70;99.90
59469;DHT22;45277;52.768;18.262;2023-12-14T02:35:12;2.60;99.90
59469;DHT22;45277;52.768;18.262;2023-12-14T02:36:43;2.70;99.90
59469;DHT22;45277;52.768;18.262;2023-12-14T02:38:15;2.60;99.90
59469;DHT22;45277;52.768;18.262;2023-12-14T02:39:46;2.70;99.90
59469;DHT22;45277;52.768;18.262;2023-12-14T02:41:18;2.70;99.90
59469;DHT22;45277;52.768;18.262;2023-12-14T02:42:49;2.60;99.90
59469;DHT22;45277;52.768;18.262;2023-12-14T02:44:21;2.60;99.90
59469;DHT22;45277;52.768;18.262;2023-12-14T02:45:52;2.60;99.90
59469;DHT22;45277;52.768;18.262;2023-12-14T02:47:23;2.60;99.90
59469;DHT22;45277;52.768;18.262;2023-12-14T02:48:55;2.60;99.90
59469;DHT22;45277;52.768;18.262;2023-12-14T02:50:26;2.60;99.90
59469;DHT22;45277;52.768;18.262;2023-12-14T02:51:57;2.50;99.90
59469;DHT22;45277;52.768;18.262;2023-12-14T02:53:29;2.50;99.90
59469;DHT22;45277;52.768;18.262;2023-12-14T02:55:00;2.50;99.90
59469;DHT22;45277;52.768;18.262;2023-12-14T02:56:32;2.50;99.90
59469;DHT22;45277;52.768;18.262;2023-12-14T02:58:03;2.50;99.90
59469;DHT22;45277;52.768;18.262;2023-12-14T02:59:35;2.50;99.90
59469;DHT22;45277;52.768;18.262;2023-12-14T03:01:06;2.50;99.90
59469;DHT22;45277;52.768;18.262;2023-12-14T03:02:37;2.50;99.90
59469;DHT22;45277;52.768;18.262;2023-12-14T03:04:09;2.50;99.90
59469;DHT22;45277;52.768;18.262;2023-12-14T03:05:40;2.50;99.90
59469;DHT22;45277;52.768;18.262;2023-12-14T03:07:11;2.50;99.90
59469;DHT22;45277;52.768;18.262;2023-12-14T03:08:43;2.50;99.90
59469;DHT22;45277;52.768;18.262;2023-12-14T03:10:14;2.50;99.90
59469;DHT22;45277;52.768;18.262;2023-12-14T03:11:46;2.50;99.90
59469;DHT22;45277;52.768;18.262;2023-12-14T03:13:17;2.50;99.90
59469;DHT22;45277;52.768;18.262;2023-12-14T03:14:48;2.50;99.90
59469;DHT22;45277;52.768;18.262;2023-12-14T03:16:21;2.50;99.90
59469;DHT22;45277;52.768;18.262;2023-12-14T03:17:52;2.50;99.90
59469;DHT22;45277;52.768;18.262;2023-12-14T03:19:23;2.50;99.90
59469;DHT22;45277;52.768;18.262;2023-12-14T03:20:55;2.50;99.90
59469;DHT22;45277;52.768;18.262;2023-12-14T03:22:26;2.50;99.90
59469;DHT22;45277;52.768;18.262;2023-12-14T03:23:57;2.50;99.90
59469;DHT22;45277;52.768;18.262;2023-12-14T03:25:29;2.50;99.90
59469;DHT22;45277;52.768;18.262;2023-12-14T03:27:00;2.50;99.90
59469;DHT22;45277;52.768;18.262;2023-12-14T03:28:31;2.50;99.90
59469;DHT22;45277;52.768;18.262;2023-12-14T03:30:03;2.50;99.90
59469;DHT22;45277;52.768;18.262;2023-12-14T03:31:38;2.40;99.90
59469;DHT22;45277;52.768;18.262;2023-12-14T03:33:10;2.50;99.90
59469;DHT22;45277;52.768;18.262;2023-12-14T03:34:42;2.40;99.90
59469;DHT22;45277;52.768;18.262;2023-12-14T03:36:13;2.40;99.90
59469;DHT22;45277;52.768;18.262;2023-12-14T03:37:45;2.40;99.90
59469;DHT22;45277;52.768;18.262;2023-12-14T03:39:17;2.40;99.90
59469;DHT22;45277;52.768;18.262;2023-12-14T03:40:48;2.40;99.90
59469;DHT22;45277;52.768;18.262;2023-12-14T03:42:19;2.40;99.90
59469;DHT22;45277;52.768;18.262;2023-12-14T03:43:51;2.40;99.90
59469;DHT22;45277;52.768;18.262;2023-12-14T03:45:22;2.40;99.90
59469;DHT22;45277;52.768;18.262;2023-12-14T03:46:53;2.40;99.90
59469;DHT22;45277;52.768;18.262;2023-12-14T03:48:25;2.40;99.90
59469;DHT22;45277;52.768;18.262;2023-12-14T03:49:56;2.40;99.90
59469;DHT22;45277;52.768;18.262;2023-12-14T03:51:28;2.40;99.90
59469;DHT22;45277;52.768;18.262;2023-12-14T03:52:59;2.40;99.90
59469;DHT22;45277;52.768;18.262;2023-12-14T03:54:31;2.40;99.90
59469;DHT22;45277;52.768;18.262;2023-12-14T03:56:03;2.40;99.90
59469;DHT22;45277;52.768;18.262;2023-12-14T03:57:35;2.40;99.90
59469;DHT22;45277;52.768;18.262;2023-12-14T03:59:09;2.40;99.90
59469;DHT22;45277;52.768;18.262;2023-12-14T04:00:40;2.40;99.90
59469;DHT22;45277;52.768;18.262;2023-12-14T04:02:12;2.40;99.90
59469;DHT22;45277;52.768;18.262;2023-12-14T04:03:44;2.40;99.90
59469;DHT22;45277;52.768;18.262;2023-12-14T04:05:15;2.40;99.90
59469;DHT22;45277;52.768;18.262;2023-12-14T04:06:46;2.40;99.90
59469;DHT22;45277;52.768;18.262;2023-12-14T04:08:18;2.40;99.90
59469;DHT22;45277;52.768;18.262;2023-12-14T04:09:49;2.40;99.90
59469;DHT22;45277;52.768;18.262;2023-12-14T04:11:20;2.40;99.90
59469;DHT22;45277;52.768;18.262;2023-12-14T04:12:52;2.40;99.90
59469;DHT22;45277;52.768;18.262;2023-12-14T04:14:23;2.40;99.90
59469;DHT22;45277;52.768;18.262;2023-12-14T04:15:54;2.40;99.90
59469;DHT22;45277;52.768;18.262;2023-12-14T04:17:26;2.40;99.90
59469;DHT22;45277;52.768;18.262;2023-12-14T04:18:57;2.40;99.90
59469;DHT22;45277;52.768;18.262;2023-12-14T04:20:28;2.40;99.90
59469;DHT22;45277;52.768;18.262;2023-12-14T04:22:00;2.40;99.90
59469;DHT22;45277;52.768;18.262;2023-12-14T04:23:31;2.40;99.90
59469;DHT22;45277;52.768;18.262;2023-12-14T04:25:03;2.40;99.90
59469;DHT22;45277;52.768;18.262;2023-12-14T04:26:34;2.40;99.90
59469;DHT22;45277;52.768;18.262;2023-12-14T04:28:06;2.40;99.90
59469;DHT22;45277;52.768;18.262;2023-12-14T04:29:37;2.40;99.90
59469;DHT22;45277;52.768;18.262;2023-12-14T04:31:09;2.40;99.90
59469;DHT22;45277;52.768;18.262;2023-12-14T04:32:41;2.40;99.90
59469;DHT22;45277;52.768;18.262;2023-12-14T04:34:12;2.40;99.90
59469;DHT22;45277;52.768;18.262;2023-12-14T04:35:47;2.40;99.90
59469;DHT22;45277;52.768;18.262;2023-12-14T04:37:18;2.50;99.90
59469;DHT22;45277;52.768;18.262;2023-12-14T04:38:49;2.50;99.90
59469;DHT22;45277;52.768;18.262;2023-12-14T04:40:21;2.40;99.90
59469;DHT22;45277;52.768;18.262;2023-12-14T04:41:53;2.40;99.90
59469;DHT22;45277;52.768;18.262;2023-12-14T04:43:24;2.50;99.90
59469;DHT22;45277;52.768;18.262;2023-12-14T04:44:56;2.40;99.90
59469;DHT22;45277;52.768;18.262;2023-12-14T04:46:27;2.40;99.90
59469;DHT22;45277;52.768;18.262;2023-12-14T04:47:58;2.40;99.90
59469;DHT22;45277;52.768;18.262;2023-12-14T04:49:30;2.40;99.90
59469;DHT22;45277;52.768;18.262;2023-12-14T04:51:01;2.40;99.90
59469;DHT22;45277;52.768;18.262;2023-12-14T04:52:32;2.40;99.90
59469;DHT22;45277;52.768;18.262;2023-12-14T04:54:04;2.40;99.90
59469;DHT22;45277;52.768;18.262;2023-12-14T04:55:35;2.40;99.90
59469;DHT22;45277;52.768;18.262;2023-12-14T04:57:06;2.40;99.90
59469;DHT22;45277;52.768;18.262;2023-12-14T04:58:41;2.40;99.90
59469;DHT22;45277;52.768;18.262;2023-12-14T05:00:13;2.40;99.90
59469;DHT22;45277;52.768;18.262;2023-12-14T05:01:45;2.40;99.90
59469;DHT22;45277;52.768;18.262;2023-12-14T05:03:16;2.40;99.90
59469;DHT22;45277;52.768;18.262;2023-12-14T05:04:47;2.40;99.90
59469;DHT22;45277;52.768;18.262;2023-12-14T05:06:19;2.40;99.90
59469;DHT22;45277;52.768;18.262;2023-12-14T05:07:50;2.40;99.90
59469;DHT22;45277;52.768;18.262;2023-12-14T05:09:22;2.40;99.90
59469;DHT22;45277;52.768;18.262;2023-12-14T05:10:53;2.40;99.90
59469;DHT22;45277;52.768;18.262;2023-12-14T05:12:24;2.40;99.90
59469;DHT22;45277;52.768;18.262;2023-12-14T05:13:57;2.40;99.90
59469;DHT22;45277;52.768;18.262;2023-12-14T05:15:29;2.40;99.90
59469;DHT22;45277;52.768;18.262;2023-12-14T05:17:00;2.50;99.90
59469;DHT22;45277;52.768;18.262;2023-12-14T05:18:31;2.50;99.90
59469;DHT22;45277;52.768;18.262;2023-12-14T05:20:04;2.40;99.90
59469;DHT22;45277;52.768;18.262;2023-12-14T05:21:36;2.50;99.90
59469;DHT22;45277;52.768;18.262;2023-12-14T05:23:08;2.40;99.90
59469;DHT22;45277;52.768;18.262;2023-12-14T05:24:39;2.40;99.90
59469;DHT22;45277;52.768;18.262;2023-12-14T05:26:11;2.40;99.90
59469;DHT22;45277;52.768;18.262;2023-12-14T05:27:42;2.40;99.90
59469;DHT22;45277;52.768;18.262;2023-12-14T05:29:14;2.50;99.90
59469;DHT22;45277;52.768;18.262;2023-12-14T05:30:45;2.40;99.90
59469;DHT22;45277;52.768;18.262;2023-12-14T05:32:17;2.40;99.90
59469;DHT22;45277;52.768;18.262;2023-12-14T05:33:48;2.40;99.90
59469;DHT22;45277;52.768;18.262;2023-12-14T05:35:19;2.30;99.90
59469;DHT22;45277;52.768;18.262;2023-12-14T05:36:51;2.30;99.90
59469;DHT22;45277;52.768;18.262;2023-12-14T05:38:22;2.30;99.90
59469;DHT22;45277;52.768;18.262;2023-12-14T05:39:54;2.30;99.90
59469;DHT22;45277;52.768;18.262;2023-12-14T05:41:25;2.30;99.90
59469;DHT22;45277;52.768;18.262;2023-12-14T05:42:57;2.30;99.90
59469;DHT22;45277;52.768;18.262;2023-12-14T05:44:28;2.30;99.90
59469;DHT22;45277;52.768;18.262;2023-12-14T05:46:00;2.30;99.90
59469;DHT22;45277;52.768;18.262;2023-12-14T05:47:31;2.30;99.90
59469;DHT22;45277;52.768;18.262;2023-12-14T05:49:04;2.30;99.90
59469;DHT22;45277;52.768;18.262;2023-12-14T05:50:35;2.20;99.90
59469;DHT22;45277;52.768;18.262;2023-12-14T05:52:07;2.20;99.90
59469;DHT22;45277;52.768;18.262;2023-12-14T05:53:38;2.20;99.90
59469;DHT22;45277;52.768;18.262;2023-12-14T05:55:10;2.20;99.90
59469;DHT22;45277;52.768;18.262;2023-12-14T05:56:41;2.20;99.90
59469;DHT22;45277;52.768;18.262;2023-12-14T05:58:13;2.20;99.90
59469;DHT22;45277;52.768;18.262;2023-12-14T05:59:44;2.20;99.90
59469;DHT22;45277;52.768;18.262;2023-12-14T06:01:18;2.30;99.90
59469;DHT22;45277;52.768;18.262;2023-12-14T06:02:50;2.30;99.90
59469;DHT22;45277;52.768;18.262;2023-12-14T06:04:21;2.30;99.90
59469;DHT22;45277;52.768;18.262;2023-12-14T06:05:52;2.30;99.90
59469;DHT22;45277;52.768;18.262;2023-12-14T06:07:25;2.30;99.90
59469;DHT22;45277;52.768;18.262;2023-12-14T06:08:56;2.20;99.90
59469;DHT22;45277;52.768;18.262;2023-12-14T06:10:28;2.30;99.90
59469;DHT22;45277;52.768;18.262;2023-12-14T06:12:04;2.30;99.90
59469;DHT22;45277;52.768;18.262;2023-12-14T06:13:36;2.30;99.90
59469;DHT22;45277;52.768;18.262;2023-12-14T06:15:08;2.20;99.90
59469;DHT22;45277;52.768;18.262;2023-12-14T06:16:42;2.20;99.90
59469;DHT22;45277;52.768;18.262;2023-12-14T06:18:13;2.20;99.90
59469;DHT22;45277;52.768;18.262;2023-12-14T06:19:45;2.20;99.90
59469;DHT22;45277;52.768;18.262;2023-12-14T06:21:17;2.20;99.90
59469;DHT22;45277;52.768;18.262;2023-12-14T06:22:48;2.20;99.90
59469;DHT22;45277;52.768;18.262;2023-12-14T06:24:20;2.20;99.90
59469;DHT22;45277;52.768;18.262;2023-12-14T06:25:54;2.20;99.90
59469;DHT22;45277;52.768;18.262;2023-12-14T06:27:26;2.20;99.90
59469;DHT22;45277;52.768;18.262;2023-12-14T06:28:57;2.20;99.90
59469;DHT22;45277;52.768;18.262;2023-12-14T06:30:29;2.20;99.90
59469;DHT22;45277;52.768;18.262;2023-12-14T06:32:00;2.20;99.90
59469;DHT22;45277;52.768;18.262;2023-12-14T06:33:32;2.20;99.90
59469;DHT22;45277;52.768;18.262;2023-12-14T06:35:05;2.20;99.90
59469;DHT22;45277;52.768;18.262;2023-12-14T06:36:42;2.10;99.90
59469;DHT22;45277;52.768;18.262;2023-12-14T06:38:14;2.10;99.90
59469;DHT22;45277;52.768;18.262;2023-12-14T06:39:45;2.10;99.90
59469;DHT22;45277;52.768;18.262;2023-12-14T06:41:21;2.10;99.90
59469;DHT22;45277;52.768;18.262;2023-12-14T06:42:53;2.10;99.90
59469;DHT22;45277;52.768;18.262;2023-12-14T06:44:25;2.20;99.90
59469;DHT22;45277;52.768;18.262;2023-12-14T06:45:57;2.20;99.90
59469;DHT22;45277;52.768;18.262;2023-12-14T06:47:29;2.20;99.90
59469;DHT22;45277;52.768;18.262;2023-12-14T06:49:01;2.20;99.90
59469;DHT22;45277;52.768;18.262;2023-12-14T06:50:34;2.20;99.90
59469;DHT22;45277;52.768;18.262;2023-12-14T06:52:06;2.20;99.90
59469;DHT22;45277;52.768;18.262;2023-12-14T06:53:42;2.20;99.90
59469;DHT22;45277;52.768;18.262;2023-12-14T06:55:14;2.20;99.90
59469;DHT22;45277;52.768;18.262;2023-12-14T06:56:46;2.20;99.90
59469;DHT22;45277;52.768;18.262;2023-12-14T06:58:18;2.20;99.90
59469;DHT22;45277;52.768;18.262;2023-12-14T06:59:49;2.20;99.90
59469;DHT22;45277;52.768;18.262;2023-12-14T07:01:21;2.20;99.90
59469;DHT22;45277;52.768;18.262;2023-12-14T07:02:53;2.20;99.90
59469;DHT22;45277;52.768;18.262;2023-12-14T07:04:24;2.20;99.90
59469;DHT22;45277;52.768;18.262;2023-12-14T07:05:57;2.20;99.90
59469;DHT22;45277;52.768;18.262;2023-12-14T07:07:30;2.20;99.90
59469;DHT22;45277;52.768;18.262;2023-12-14T07:09:01;2.20;99.90
59469;DHT22;45277;52.768;18.262;2023-12-14T07:10:34;2.30;99.90
59469;DHT22;45277;52.768;18.262;2023-12-14T07:12:07;2.30;99.90
59469;DHT22;45277;52.768;18.262;2023-12-14T07:13:39;2.30;99.90
59469;DHT22;45277;52.768;18.262;2023-12-14T07:15:11;2.30;99.90
59469;DHT22;45277;52.768;18.262;2023-12-14T07:16:43;2.40;99.90
59469;DHT22;45277;52.768;18.262;2023-12-14T07:18:15;2.40;99.90
59469;DHT22;45277;52.768;18.262;2023-12-14T07:19:47;2.40;99.90
59469;DHT22;45277;52.768;18.262;2023-12-14T07:21:18;2.30;99.90
59469;DHT22;45277;52.768;18.262;2023-12-14T07:22:51;2.30;99.90
59469;DHT22;45277;52.768;18.262;2023-12-14T07:24:22;2.40;99.90
59469;DHT22;45277;52.768;18.262;2023-12-14T07:25:54;2.40;99.90
59469;DHT22;45277;52.768;18.262;2023-12-14T07:27:26;2.40;99.90
59469;DHT22;45277;52.768;18.262;2023-12-14T07:28:58;2.30;99.90
59469;DHT22;45277;52.768;18.262;2023-12-14T07:30:29;2.30;99.90
59469;DHT22;45277;52.768;18.262;2023-12-14T07:32:01;2.30;99.90
59469;DHT22;45277;52.768;18.262;2023-12-14T07:33:33;2.30;99.90
59469;DHT22;45277;52.768;18.262;2023-12-14T07:35:06;2.40;99.90
59469;DHT22;45277;52.768;18.262;2023-12-14T07:36:37;2.30;99.90
59469;DHT22;45277;52.768;18.262;2023-12-14T07:38:10;2.30;99.90
59469;DHT22;45277;52.768;18.262;2023-12-14T07:39:42;2.30;99.90
59469;DHT22;45277;52.768;18.262;2023-12-14T07:41:14;2.30;99.90
59469;DHT22;45277;52.768;18.262;2023-12-14T07:42:45;2.20;99.90
59469;DHT22;45277;52.768;18.262;2023-12-14T07:44:17;2.20;99.90
59469;DHT22;45277;52.768;18.262;2023-12-14T07:45:49;2.30;99.90
59469;DHT22;45277;52.768;18.262;2023-12-14T07:47:20;2.30;99.90
59469;DHT22;45277;52.768;18.262;2023-12-14T07:48:52;2.30;99.90
59469;DHT22;45277;52.768;18.262;2023-12-14T07:50:23;2.40;99.90
59469;DHT22;45277;52.768;18.262;2023-12-14T07:51:55;2.40;99.90
59469;DHT22;45277;52.768;18.262;2023-12-14T07:53:26;2.40;99.90
59469;DHT22;45277;52.768;18.262;2023-12-14T07:54:58;2.50;99.90
59469;DHT22;45277;52.768;18.262;2023-12-14T07:56:29;2.50;99.90
59469;DHT22;45277;52.768;18.262;2023-12-14T07:58:01;2.50;99.90
59469;DHT22;45277;52.768;18.262;2023-12-14T07:59:33;2.50;99.90
59469;DHT22;45277;52.768;18.262;2023-12-14T08:01:04;2.40;99.90
59469;DHT22;45277;52.768;18.262;2023-12-14T08:02:37;2.50;99.90
59469;DHT22;45277;52.768;18.262;2023-12-14T08:04:08;2.50;99.90
59469;DHT22;45277;52.768;18.262;2023-12-14T08:05:41;2.50;99.90
59469;DHT22;45277;52.768;18.262;2023-12-14T08:07:13;2.50;99.90
59469;DHT22;45277;52.768;18.262;2023-12-14T08:08:44;2.50;99.90
59469;DHT22;45277;52.768;18.262;2023-12-14T08:10:16;2.50;99.90
59469;DHT22;45277;52.768;18.262;2023-12-14T08:11:47;2.50;99.90
59469;DHT22;45277;52.768;18.262;2023-12-14T08:13:18;2.40;99.90
59469;DHT22;45277;52.768;18.262;2023-12-14T08:14:50;2.40;99.90
59469;DHT22;45277;52.768;18.262;2023-12-14T08:16:22;2.40;99.90
59469;DHT22;45277;52.768;18.262;2023-12-14T08:17:54;2.30;99.90
59469;DHT22;45277;52.768;18.262;2023-12-14T08:19:25;2.30;99.90
59469;DHT22;45277;52.768;18.262;2023-12-14T08:20:57;2.30;99.90
59469;DHT22;45277;52.768;18.262;2023-12-14T08:22:29;2.30;99.90
59469;DHT22;45277;52.768;18.262;2023-12-14T08:24:00;2.20;99.90
59469;DHT22;45277;52.768;18.262;2023-12-14T08:25:32;2.20;99.90
59469;DHT22;45277;52.768;18.262;2023-12-14T08:27:03;2.20;99.90
59469;DHT22;45277;52.768;18.262;2023-12-14T08:28:35;2.20;99.90
59469;DHT22;45277;52.768;18.262;2023-12-14T08:30:07;2.20;99.90
59469;DHT22;45277;52.768;18.262;2023-12-14T08:31:40;2.20;99.90
59469;DHT22;45277;52.768;18.262;2023-12-14T08:33:12;2.20;99.90
59469;DHT22;45277;52.768;18.262;2023-12-14T08:34:44;2.20;99.90
59469;DHT22;45277;52.768;18.262;2023-12-14T08:36:16;2.20;99.90
59469;DHT22;45277;52.768;18.262;2023-12-14T08:37:51;2.20;99.90
59469;DHT22;45277;52.768;18.262;2023-12-14T08:39:23;2.20;99.90
59469;DHT22;45277;52.768;18.262;2023-12-14T08:40:54;2.20;99.90
59469;DHT22;45277;52.768;18.262;2023-12-14T08:42:26;2.20;99.90
59469;DHT22;45277;52.768;18.262;2023-12-14T08:43:58;2.20;99.90
59469;DHT22;45277;52.768;18.262;2023-12-14T08:45:32;2.10;99.90
59469;DHT22;45277;52.768;18.262;2023-12-14T08:47:04;2.10;99.90
59469;DHT22;45277;52.768;18.262;2023-12-14T08:48:38;2.20;99.90
59469;DHT22;45277;52.768;18.262;2023-12-14T08:50:10;2.10;99.90
59469;DHT22;45277;52.768;18.262;2023-12-14T08:51:44;2.10;99.90
59469;DHT22;45277;52.768;18.262;2023-12-14T08:53:17;2.10;99.90
59469;DHT22;45277;52.768;18.262;2023-12-14T08:54:49;2.10;99.90
59469;DHT22;45277;52.768;18.262;2023-12-14T08:56:20;2.20;99.90
59469;DHT22;45277;52.768;18.262;2023-12-14T08:57:51;2.20;99.90
59469;DHT22;45277;52.768;18.262;2023-12-14T08:59:23;2.20;99.90
59469;DHT22;45277;52.768;18.262;2023-12-14T09:00:54;2.20;99.90
59469;DHT22;45277;52.768;18.262;2023-12-14T09:02:26;2.20;99.90
59469;DHT22;45277;52.768;18.262;2023-12-14T09:03:58;2.20;99.90
59469;DHT22;45277;52.768;18.262;2023-12-14T09:05:29;2.20;99.90
59469;DHT22;45277;52.768;18.262;2023-12-14T09:07:01;2.20;99.90
59469;DHT22;45277;52.768;18.262;2023-12-14T09:08:32;2.20;99.90
59469;DHT22;45277;52.768;18.262;2023-12-14T09:10:04;2.20;99.90
59469;DHT22;45277;52.768;18.262;2023-12-14T09:11:37;2.30;99.90
59469;DHT22;45277;52.768;18.262;2023-12-14T09:13:09;2.30;99.90
59469;DHT22;45277;52.768;18.262;2023-12-14T09:14:40;2.20;99.90
59469;DHT22;45277;52.768;18.262;2023-12-14T09:16:12;2.30;99.90
59469;DHT22;45277;52.768;18.262;2023-12-14T09:17:43;2.20;99.90
59469;DHT22;45277;52.768;18.262;2023-12-14T09:19:15;2.20;99.90
59469;DHT22;45277;52.768;18.262;2023-12-14T09:20:47;2.30;99.90
59469;DHT22;45277;52.768;18.262;2023-12-14T09:22:19;2.40;99.90
59469;DHT22;45277;52.768;18.262;2023-12-14T09:23:51;2.30;99.90
59469;DHT22;45277;52.768;18.262;2023-12-14T09:25:25;2.30;99.90
59469;DHT22;45277;52.768;18.262;2023-12-14T09:26:56;2.40;99.90
59469;DHT22;45277;52.768;18.262;2023-12-14T09:28:28;2.40;99.90
59469;DHT22;45277;52.768;18.262;2023-12-14T09:30:00;2.30;99.90
59469;DHT22;45277;52.768;18.262;2023-12-14T09:31:31;2.30;99.90
59469;DHT22;45277;52.768;18.262;2023-12-14T09:33:03;2.30;99.90
59469;DHT22;45277;52.768;18.262;2023-12-14T09:34:35;2.20;99.90
59469;DHT22;45277;52.768;18.262;2023-12-14T09:36:07;2.20;99.90
59469;DHT22;45277;52.768;18.262;2023-12-14T09:37:38;2.20;99.90
59469;DHT22;45277;52.768;18.262;2023-12-14T09:39:11;2.20;99.90
59469;DHT22;45277;52.768;18.262;2023-12-14T09:40:44;2.20;99.90
59469;DHT22;45277;52.768;18.262;2023-12-14T09:42:18;2.20;99.90